Time;durP1;ratioP1;P1;durP2;ratioP2;P2;SDS_P1;SDS_P2;PMS_P1;PMS_P2;Temp;Humidity;BMP_temperature;BMP_pressure;BME280_temperature;BME280_humidity;BME280_pressure;Samples;Min_cycle;Max_cycle;Signal;HPM_P1;HPM_P2
2022/01/04 00:00:06;;;;;;;4.33;4.03;;;11.50;99.90;;;;;;5065721;28;20840;-45
2022/01/04 00:02:33;;;;;;;4.53;4.13;;;11.50;99.90;;;;;;5058433;27;20483;-45
2022/01/04 00:05:01;;;;;;;5.77;5.23;;;11.50;99.90;;;;;;5089231;27;20547;-45
2022/01/04 00:07:28;;;;;;;6.33;3.87;;;11.40;99.90;;;;;;5069538;28;20528;-45
2022/01/04 00:09:54;;;;;;;5.13;4.70;;;11.50;99.90;;;;;;5085943;27;20479;-45
2022/01/04 00:15:07;;;;;;;6.13;5.53;;;11.40;99.90;;;;;;5077482;27;20482;-45
2022/01/04 00:17:34;;;;;;;4.20;3.07;;;11.40;99.90;;;;;;5079021;28;20903;-45
2022/01/04 00:20:02;;;;;;;3.60;2.77;;;11.50;99.90;;;;;;5058751;27;20913;-45
2022/01/04 00:22:28;;;;;;;5.10;3.17;;;11.50;99.90;;;;;;5095138;27;20491;-45
2022/01/04 00:24:55;;;;;;;6.43;5.30;;;11.50;99.90;;;;;;5064135;28;20527;-45
2022/01/04 00:27:22;;;;;;;5.87;3.40;;;11.40;99.90;;;;;;5058889;28;20551;-45
2022/01/04 00:29:48;;;;;;;5.53;5.03;;;11.60;99.90;;;;;;5096809;27;21082;-46
2022/01/04 00:32:15;;;;;;;5.63;4.20;;;11.50;99.90;;;;;;5077525;27;20474;-45
2022/01/04 00:34:42;;;;;;;5.13;3.90;;;11.50;99.90;;;;;;5082199;28;20547;-45
2022/01/04 00:37:10;;;;;;;9.57;4.87;;;11.50;99.90;;;;;;5079102;28;20982;-46
2022/01/04 00:39:37;;;;;;;8.27;5.80;;;11.50;99.90;;;;;;5077878;28;20488;-45
2022/01/04 00:42:04;;;;;;;8.93;6.00;;;11.40;99.90;;;;;;5074516;28;20898;-46
2022/01/04 00:44:31;;;;;;;8.77;4.17;;;11.40;99.90;;;;;;5085739;28;21202;-45
2022/01/04 00:46:59;;;;;;;6.13;5.40;;;11.50;99.90;;;;;;5075627;28;20982;-46
2022/01/04 00:49:25;;;;;;;7.80;5.87;;;11.40;99.90;;;;;;5078670;28;20483;-45
2022/01/04 00:51:54;;;;;;;7.63;6.20;;;11.40;99.90;;;;;;5074877;28;20469;-47
2022/01/04 00:54:23;;;;;;;4.70;4.20;;;11.40;99.90;;;;;;5079978;28;20497;-44
2022/01/04 00:56:50;;;;;;;4.73;2.87;;;11.30;99.90;;;;;;5078394;28;20913;-45
2022/01/04 00:59:18;;;;;;;6.43;4.47;;;11.40;99.90;;;;;;5074410;28;21031;-45
2022/01/04 01:01:45;;;;;;;6.77;4.47;;;11.40;99.90;;;;;;5079480;28;20495;-46
2022/01/04 01:04:11;;;;;;;10.40;6.83;;;11.40;99.90;;;;;;5078536;28;20529;-44
2022/01/04 01:06:38;;;;;;;4.20;3.80;;;11.20;99.90;;;;;;5079732;28;21155;-45
2022/01/04 01:09:05;;;;;;;6.83;4.00;;;11.20;99.90;;;;;;5078369;28;20723;-45
2022/01/04 01:11:33;;;;;;;3.80;3.13;;;11.30;99.90;;;;;;5079698;28;20488;-45
2022/01/04 01:14:00;;;;;;;8.57;6.60;;;11.30;99.90;;;;;;5075016;28;22904;-45
2022/01/04 01:16:27;;;;;;;8.20;6.80;;;11.30;99.90;;;;;;5080387;28;21101;-46
2022/01/04 01:18:54;;;;;;;8.70;5.17;;;11.30;99.90;;;;;;5077883;28;20486;-44
2022/01/04 01:21:21;;;;;;;10.60;5.90;;;11.20;99.90;;;;;;5073822;28;21003;-45
2022/01/04 01:23:47;;;;;;;6.00;4.17;;;11.10;99.90;;;;;;5072960;28;20487;-45
2022/01/04 01:26:14;;;;;;;8.73;6.27;;;11.20;99.90;;;;;;5078842;28;20481;-48
2022/01/04 01:28:42;;;;;;;7.23;4.63;;;11.10;99.90;;;;;;5066922;27;20848;-45
2022/01/04 01:31:10;;;;;;;8.23;5.97;;;11.20;99.90;;;;;;5088359;27;20506;-45
2022/01/04 01:33:36;;;;;;;5.33;3.20;;;11.10;99.90;;;;;;5070153;28;20504;-44
2022/01/04 01:36:04;;;;;;;4.20;3.80;;;11.20;99.90;;;;;;5086070;28;20485;-45
2022/01/04 01:38:30;;;;;;;3.80;3.33;;;11.20;99.90;;;;;;5076796;28;20488;-45
2022/01/04 01:40:57;;;;;;;7.53;5.23;;;11.10;99.90;;;;;;5077153;28;20490;-46
2022/01/04 01:43:26;;;;;;;6.90;4.90;;;11.20;99.90;;;;;;5067519;28;20492;-45
2022/01/04 01:45:54;;;;;;;6.77;4.20;;;11.10;99.90;;;;;;5091202;28;20531;-46
2022/01/04 01:48:21;;;;;;;6.23;3.83;;;11.20;99.90;;;;;;5076131;28;21336;-45
2022/01/04 01:50:47;;;;;;;7.47;3.87;;;11.20;99.90;;;;;;5071878;28;20481;-45
2022/01/04 01:53:15;;;;;;;5.97;4.43;;;11.10;99.90;;;;;;5083400;28;20543;-44
2022/01/04 01:55:42;;;;;;;6.10;4.10;;;11.10;99.90;;;;;;5088542;28;20491;-44
2022/01/04 01:58:08;;;;;;;4.10;2.53;;;11.10;99.90;;;;;;5074700;28;20537;-45
2022/01/04 02:00:35;;;;;;;3.80;3.27;;;11.20;99.90;;;;;;5073989;28;20485;-45
2022/01/04 02:03:04;;;;;;;2.63;1.93;;;11.20;99.90;;;;;;5076202;28;21074;-45
2022/01/04 02:05:31;;;;;;;5.33;4.50;;;11.20;99.90;;;;;;5062963;28;20550;-44
2022/01/04 02:07:59;;;;;;;3.30;2.40;;;11.10;99.90;;;;;;5109475;28;20481;-45
2022/01/04 02:10:26;;;;;;;9.80;3.43;;;11.20;99.90;;;;;;5077266;28;20561;-45
2022/01/04 02:12:54;;;;;;;4.70;4.27;;;11.20;99.90;;;;;;5075939;28;20631;-45
2022/01/04 02:15:23;;;;;;;5.73;4.53;;;11.10;99.90;;;;;;5074430;28;20488;-45
2022/01/04 02:17:50;;;;;;;7.30;3.67;;;11.10;99.90;;;;;;5075875;28;20488;-45
2022/01/04 02:20:19;;;;;;;4.47;2.70;;;11.10;99.90;;;;;;5078420;28;21010;-45
2022/01/04 02:22:47;;;;;;;5.20;3.80;;;11.10;99.90;;;;;;5075187;28;20482;-45
2022/01/04 02:25:14;;;;;;;5.33;3.17;;;11.10;99.90;;;;;;5078599;28;20477;-45
2022/01/04 02:27:42;;;;;;;4.60;4.20;;;11.00;99.90;;;;;;5079752;28;20548;-45
2022/01/04 02:30:14;;;;;;;8.10;4.13;;;11.10;99.90;;;;;;5075739;28;21224;-45
2022/01/04 02:32:41;;;;;;;5.03;4.53;;;11.10;99.90;;;;;;5083581;28;20592;-45
2022/01/04 02:35:08;;;;;;;9.00;5.60;;;11.00;99.90;;;;;;5081405;28;20568;-45
2022/01/04 02:37:36;;;;;;;4.60;3.07;;;11.00;99.90;;;;;;5079200;28;20472;-45
2022/01/04 02:40:04;;;;;;;3.53;3.03;;;11.00;99.90;;;;;;5077087;28;20478;-45
2022/01/04 02:42:30;;;;;;;6.53;4.70;;;11.10;99.90;;;;;;5082075;28;20471;-45
2022/01/04 02:45:00;;;;;;;4.63;4.23;;;11.10;99.90;;;;;;5081975;28;20534;-45
2022/01/04 02:47:28;;;;;;;5.10;4.20;;;11.10;99.90;;;;;;5081812;28;20481;-45
2022/01/04 02:49:54;;;;;;;6.13;3.77;;;11.00;99.90;;;;;;5080688;28;20490;-45
2022/01/04 02:52:21;;;;;;;3.83;3.50;;;11.00;99.90;;;;;;5081278;28;20491;-45
2022/01/04 02:54:49;;;;;;;4.33;3.03;;;11.00;99.90;;;;;;5078279;28;20527;-46
2022/01/04 02:57:16;;;;;;;7.87;5.20;;;11.10;99.90;;;;;;5080638;28;20468;-44
2022/01/04 02:59:43;;;;;;;5.80;4.97;;;10.90;99.90;;;;;;5066942;28;20463;-45
2022/01/04 03:02:09;;;;;;;5.17;3.77;;;10.90;99.90;;;;;;5081618;28;20822;-45
2022/01/04 03:04:36;;;;;;;5.83;4.50;;;11.00;99.90;;;;;;5082475;28;20670;-46
2022/01/04 03:07:03;;;;;;;4.03;3.63;;;11.00;99.90;;;;;;5078751;28;20511;-45
2022/01/04 03:09:30;;;;;;;3.30;2.67;;;11.00;99.90;;;;;;5080575;28;20526;-45
2022/01/04 03:11:58;;;;;;;4.50;3.03;;;11.10;99.90;;;;;;5081507;28;20488;-47
2022/01/04 03:14:25;;;;;;;5.60;4.53;;;11.10;99.90;;;;;;5079304;28;20489;-46
2022/01/04 03:16:52;;;;;;;6.47;3.53;;;11.00;99.90;;;;;;5078257;28;20477;-47
2022/01/04 03:19:19;;;;;;;7.83;4.00;;;11.10;99.90;;;;;;5077056;28;20546;-48
2022/01/04 03:21:46;;;;;;;5.73;3.27;;;11.10;99.90;;;;;;5080610;28;20484;-49
2022/01/04 03:24:15;;;;;;;3.07;2.53;;;11.10;99.90;;;;;;5076977;27;20489;-49
2022/01/04 03:26:42;;;;;;;4.33;2.60;;;11.10;99.90;;;;;;5093328;27;20715;-48
2022/01/04 03:29:11;;;;;;;3.47;2.83;;;11.10;99.90;;;;;;5089856;28;20473;-48
2022/01/04 03:31:39;;;;;;;9.80;4.40;;;11.10;99.90;;;;;;5080264;28;20485;-48
2022/01/04 03:34:06;;;;;;;3.23;2.43;;;11.10;99.90;;;;;;5071518;27;20794;-48
2022/01/04 03:36:33;;;;;;;4.07;3.10;;;11.00;99.90;;;;;;5099977;27;20535;-49
2022/01/04 03:39:04;;;;;;;4.10;3.13;;;11.00;99.90;;;;;;5078246;28;20530;-49
2022/01/04 03:41:31;;;;;;;4.37;2.50;;;11.00;99.90;;;;;;5069771;28;20516;-48
2022/01/04 03:43:58;;;;;;;2.83;2.20;;;11.00;99.90;;;;;;5079894;28;20473;-48
2022/01/04 03:46:26;;;;;;;3.77;2.67;;;11.00;99.90;;;;;;5069285;28;21004;-47
2022/01/04 03:48:53;;;;;;;4.90;2.60;;;11.10;99.90;;;;;;5077897;28;21356;-47
2022/01/04 03:51:20;;;;;;;3.33;3.00;;;11.00;99.90;;;;;;5077975;28;20491;-49
2022/01/04 03:53:47;;;;;;;2.90;2.40;;;11.10;99.90;;;;;;5074927;28;20558;-48
2022/01/04 03:56:14;;;;;;;4.23;3.93;;;11.00;99.90;;;;;;5075023;28;20926;-47
2022/01/04 03:58:40;;;;;;;2.97;2.77;;;11.00;99.90;;;;;;5082158;28;20488;-53
2022/01/04 04:01:07;;;;;;;4.37;2.90;;;11.00;99.90;;;;;;5080918;28;20481;-48
2022/01/04 04:03:36;;;;;;;3.47;1.73;;;11.00;99.90;;;;;;5069940;28;20477;-47
2022/01/04 04:06:03;;;;;;;2.77;1.90;;;11.10;99.90;;;;;;5086035;28;20476;-47
2022/01/04 04:08:30;;;;;;;2.77;2.57;;;11.00;99.90;;;;;;5079176;28;20492;-48
2022/01/04 04:10:57;;;;;;;2.97;2.40;;;11.00;99.90;;;;;;5078701;28;21317;-48
2022/01/04 04:13:23;;;;;;;2.13;1.93;;;11.00;99.90;;;;;;5071068;28;20481;-48
2022/01/04 04:15:50;;;;;;;2.20;1.70;;;11.10;99.90;;;;;;5076119;28;20481;-48
2022/01/04 04:18:17;;;;;;;2.50;1.40;;;11.10;99.90;;;;;;5077898;28;20855;-47
2022/01/04 04:20:46;;;;;;;17.43;1.40;;;11.00;99.90;;;;;;5076310;28;20526;-47
2022/01/04 04:23:12;;;;;;;1.87;1.43;;;11.10;99.90;;;;;;5073507;28;21097;-48
2022/01/04 04:25:40;;;;;;;2.20;2.00;;;11.10;99.90;;;;;;5089963;28;21125;-48
2022/01/04 04:28:06;;;;;;;1.80;1.27;;;11.10;99.90;;;;;;5079424;28;21375;-48
2022/01/04 04:30:34;;;;;;;2.53;1.60;;;11.10;99.90;;;;;;5076006;28;20475;-48
2022/01/04 04:33:01;;;;;;;1.73;1.30;;;11.20;99.90;;;;;;5075823;28;20481;-47
2022/01/04 04:35:29;;;;;;;1.87;1.47;;;11.20;99.90;;;;;;5080251;28;20477;-47
2022/01/04 04:37:58;;;;;;;2.13;1.83;;;11.10;99.90;;;;;;5077862;28;20487;-48
2022/01/04 04:40:25;;;;;;;1.90;1.10;;;11.10;99.90;;;;;;5077915;28;20577;-47
2022/01/04 04:42:51;;;;;;;2.20;1.20;;;11.10;99.90;;;;;;5078519;28;20557;-48
2022/01/04 04:45:18;;;;;;;2.23;1.90;;;11.10;99.90;;;;;;5077430;28;20554;-47
2022/01/04 04:47:45;;;;;;;1.93;1.67;;;11.20;99.90;;;;;;5077983;28;20489;-48
2022/01/04 04:50:12;;;;;;;1.60;1.00;;;11.10;99.90;;;;;;5070809;28;20508;-48
2022/01/04 04:52:39;;;;;;;1.80;1.33;;;11.20;99.90;;;;;;5080301;28;20906;-48
2022/01/04 04:55:09;;;;;;;1.97;1.20;;;11.20;99.90;;;;;;5077454;28;20473;-48
2022/01/04 04:57:36;;;;;;;4.47;1.20;;;11.30;99.90;;;;;;5075300;27;20475;-47
2022/01/04 05:00:04;;;;;;;1.60;0.90;;;11.30;99.90;;;;;;5090994;27;20537;-47
2022/01/04 05:02:30;;;;;;;1.70;1.50;;;11.20;99.90;;;;;;5078412;28;20489;-48
2022/01/04 05:04:57;;;;;;;4.53;1.80;;;11.20;99.90;;;;;;5075025;27;20515;-47
2022/01/04 05:07:25;;;;;;;1.83;1.10;;;11.30;99.90;;;;;;5092908;27;22029;-47
2022/01/04 05:09:52;;;;;;;1.70;1.20;;;11.40;99.90;;;;;;5073631;28;20893;-48
2022/01/04 05:12:20;;;;;;;2.97;1.30;;;11.30;99.90;;;;;;5079598;28;20535;-48
2022/01/04 05:14:47;;;;;;;1.80;0.93;;;11.30;99.90;;;;;;5074511;28;20480;-49
2022/01/04 05:17:14;;;;;;;1.60;0.97;;;11.30;99.90;;;;;;5077129;28;20477;-48
2022/01/04 05:19:41;;;;;;;1.80;1.20;;;11.30;99.90;;;;;;5069785;28;20484;-47
2022/01/04 05:22:08;;;;;;;1.57;1.20;;;11.30;99.90;;;;;;5091862;28;20876;-48
2022/01/04 05:24:35;;;;;;;2.50;1.10;;;11.30;99.90;;;;;;5079501;28;20504;-48
2022/01/04 05:27:02;;;;;;;2.53;1.17;;;11.30;99.90;;;;;;5073276;28;20537;-48
2022/01/04 05:29:30;;;;;;;2.00;1.10;;;11.30;99.90;;;;;;5092933;27;20996;-47
2022/01/04 05:31:57;;;;;;;2.00;1.50;;;11.20;99.90;;;;;;5075630;27;20488;-47
2022/01/04 05:34:25;;;;;;;2.00;1.50;;;11.30;99.90;;;;;;5075683;28;21483;-48
2022/01/04 05:36:52;;;;;;;3.00;1.60;;;11.30;99.90;;;;;;5076844;28;20489;-48
2022/01/04 05:39:19;;;;;;;1.90;1.33;;;11.20;99.90;;;;;;5076664;28;20477;-47
2022/01/04 05:41:46;;;;;;;2.37;1.50;;;11.30;99.90;;;;;;5065956;28;20474;-48
2022/01/04 05:44:13;;;;;;;2.93;1.90;;;11.30;99.90;;;;;;5104563;27;21102;-48
2022/01/04 05:46:41;;;;;;;2.10;1.10;;;11.40;99.90;;;;;;5073633;28;20478;-49
2022/01/04 05:49:08;;;;;;;2.00;1.23;;;11.40;99.90;;;;;;5083053;28;20542;-49
2022/01/04 05:51:34;;;;;;;1.63;1.20;;;11.40;99.90;;;;;;5076437;28;20920;-48
2022/01/04 05:54:01;;;;;;;2.20;2.00;;;11.40;99.90;;;;;;5073799;28;20484;-47
2022/01/04 05:56:28;;;;;;;3.47;1.70;;;11.30;99.90;;;;;;5081453;28;20489;-48
2022/01/04 05:58:55;;;;;;;2.00;1.63;;;11.30;99.90;;;;;;5076244;28;20473;-49
2022/01/04 06:01:22;;;;;;;1.70;1.30;;;11.20;99.90;;;;;;5082521;28;20520;-48
2022/01/04 06:03:51;;;;;;;1.80;1.47;;;11.30;99.90;;;;;;5084259;28;20483;-48
2022/01/04 06:06:19;;;;;;;2.23;1.63;;;11.40;99.90;;;;;;5067630;28;20593;-49
2022/01/04 06:08:45;;;;;;;4.47;2.00;;;11.40;99.90;;;;;;5082075;28;20817;-48
2022/01/04 06:11:29;;;;;;;3.63;2.03;;;11.30;99.90;;;;;;5074841;27;20475;-47
2022/01/04 06:16:41;;;;;;;1.67;1.17;;;11.20;99.90;;;;;;5102234;27;20484;-47
2022/01/04 06:19:10;;;;;;;2.47;1.93;;;11.30;99.90;;;;;;5100695;27;20500;-47
2022/01/04 06:21:37;;;;;;;2.30;1.50;;;11.30;99.90;;;;;;5099954;27;20486;-48
2022/01/04 06:24:04;;;;;;;3.53;1.60;;;11.40;99.90;;;;;;5076451;28;20887;-48
2022/01/04 06:26:31;;;;;;;2.07;1.30;;;11.30;99.90;;;;;;5079048;28;20489;-48
2022/01/04 06:28:57;;;;;;;3.33;1.53;;;11.30;99.90;;;;;;5079527;28;20482;-49
2022/01/04 06:31:25;;;;;;;2.00;1.80;;;11.40;99.90;;;;;;5072013;28;20507;-47
2022/01/04 06:33:52;;;;;;;2.77;1.73;;;11.40;99.90;;;;;;5081291;28;20480;-48
2022/01/04 06:36:20;;;;;;;2.57;1.83;;;11.40;99.90;;;;;;5076125;28;20986;-48
2022/01/04 06:38:47;;;;;;;1.70;1.27;;;11.30;99.90;;;;;;5082834;28;20486;-49
2022/01/04 06:41:13;;;;;;;3.30;1.60;;;11.40;99.90;;;;;;5078045;28;20500;-49
2022/01/04 06:43:40;;;;;;;2.50;1.57;;;11.40;99.90;;;;;;5080484;28;20560;-47
2022/01/04 06:46:10;;;;;;;2.73;1.40;;;11.40;99.90;;;;;;5077127;28;20925;-48
2022/01/04 06:48:37;;;;;;;2.40;1.20;;;11.30;99.90;;;;;;5077002;28;20575;-48
2022/01/04 06:51:04;;;;;;;3.53;2.63;;;11.40;99.90;;;;;;5081812;28;20534;-47
2022/01/04 06:53:32;;;;;;;2.00;1.30;;;11.20;99.90;;;;;;5083869;28;20902;-48
2022/01/04 06:55:59;;;;;;;2.23;1.83;;;11.30;99.90;;;;;;5079670;27;20973;-48
2022/01/04 06:58:26;;;;;;;2.03;1.30;;;11.40;99.90;;;;;;5089599;27;20484;-48
2022/01/04 07:00:53;;;;;;;1.70;1.30;;;11.40;99.90;;;;;;5095471;27;20480;-50
2022/01/04 07:03:20;;;;;;;3.13;2.17;;;11.40;99.90;;;;;;5062729;27;20542;-48
2022/01/04 07:05:47;;;;;;;3.47;2.40;;;11.40;99.90;;;;;;5069907;28;20492;-52
2022/01/04 07:08:14;;;;;;;4.97;1.60;;;11.40;99.90;;;;;;5075258;27;20477;-48
2022/01/04 07:10:42;;;;;;;3.97;1.47;;;11.50;99.90;;;;;;5067706;27;20492;-47
2022/01/04 07:13:09;;;;;;;3.03;1.50;;;11.50;99.90;;;;;;5076448;28;20546;-48
2022/01/04 07:15:36;;;;;;;2.27;1.40;;;11.40;99.90;;;;;;5075286;28;20483;-48
2022/01/04 07:18:02;;;;;;;3.00;1.27;;;11.50;99.90;;;;;;5068457;27;20584;-48
2022/01/04 07:20:29;;;;;;;3.30;2.40;;;11.50;99.90;;;;;;5066705;27;21010;-48
2022/01/04 07:22:56;;;;;;;2.10;1.40;;;11.50;99.90;;;;;;5091789;27;21050;-48
2022/01/04 07:25:24;;;;;;;2.00;1.70;;;11.50;99.90;;;;;;5084704;27;20574;-47
2022/01/04 07:27:52;;;;;;;4.20;2.03;;;11.50;99.90;;;;;;5074483;28;20489;-48
2022/01/04 07:30:18;;;;;;;2.97;1.60;;;11.50;99.90;;;;;;5079139;28;20485;-47
2022/01/04 07:32:45;;;;;;;1.80;1.30;;;11.50;99.90;;;;;;5074537;28;20956;-48
2022/01/04 07:35:12;;;;;;;2.50;1.60;;;11.50;99.90;;;;;;5095207;27;20475;-49
2022/01/04 07:37:39;;;;;;;2.40;1.60;;;11.50;99.90;;;;;;5075651;27;21048;-47
2022/01/04 07:40:07;;;;;;;2.00;1.40;;;11.40;99.90;;;;;;5082980;28;20478;-47
2022/01/04 07:42:34;;;;;;;2.20;2.00;;;11.40;99.90;;;;;;5076850;28;20493;-48
2022/01/04 07:45:03;;;;;;;2.10;1.83;;;11.50;99.90;;;;;;5075687;28;20530;-48
2022/01/04 07:47:31;;;;;;;1.67;1.10;;;11.40;99.90;;;;;;5075828;28;20551;-47
2022/01/04 07:49:57;;;;;;;2.00;1.40;;;11.50;99.90;;;;;;5074915;28;20558;-47
2022/01/04 07:52:24;;;;;;;2.37;1.57;;;11.50;99.90;;;;;;5073708;28;20562;-47
2022/01/04 07:54:51;;;;;;;1.83;1.33;;;11.50;99.90;;;;;;5071290;28;20475;-47
2022/01/04 07:57:18;;;;;;;3.80;1.20;;;11.50;99.90;;;;;;5075224;28;20487;-47
2022/01/04 07:59:45;;;;;;;2.07;1.87;;;11.50;99.90;;;;;;5071761;28;21207;-47
2022/01/04 08:02:13;;;;;;;2.23;1.97;;;11.50;99.90;;;;;;5066953;28;21024;-47
2022/01/04 08:04:39;;;;;;;2.03;1.50;;;11.50;99.90;;;;;;5070651;28;20477;-49
2022/01/04 08:07:06;;;;;;;5.40;1.27;;;11.50;99.90;;;;;;5075956;28;20645;-47
2022/01/04 08:09:33;;;;;;;2.83;2.10;;;11.60;99.90;;;;;;5074280;28;20475;-48
2022/01/04 08:11:59;;;;;;;1.83;1.63;;;11.50;99.90;;;;;;5076733;28;21081;-47
2022/01/04 08:14:26;;;;;;;2.10;1.50;;;11.50;99.90;;;;;;5076216;28;20541;-48
2022/01/04 08:16:54;;;;;;;2.30;1.57;;;11.60;99.90;;;;;;5079404;28;20535;-49
2022/01/04 08:19:22;;;;;;;3.10;1.97;;;11.60;99.90;;;;;;5075150;28;20488;-48
2022/01/04 08:21:49;;;;;;;5.53;2.07;;;11.50;99.90;;;;;;5084642;28;20474;-47
2022/01/04 08:24:16;;;;;;;1.90;1.30;;;11.60;99.90;;;;;;5077235;28;20478;-50
2022/01/04 08:26:43;;;;;;;2.80;1.80;;;11.70;99.90;;;;;;5082583;28;20479;-47
2022/01/04 08:29:09;;;;;;;2.60;2.00;;;11.60;99.90;;;;;;5080535;28;20540;-48
2022/01/04 08:31:37;;;;;;;2.07;1.77;;;11.60;99.90;;;;;;5080673;28;20582;-48
2022/01/04 08:34:04;;;;;;;2.37;1.63;;;11.60;99.90;;;;;;5079605;28;20524;-47
2022/01/04 08:36:32;;;;;;;4.07;2.60;;;11.60;99.90;;;;;;5079481;28;20538;-46
2022/01/04 08:39:00;;;;;;;1.70;1.30;;;11.50;99.90;;;;;;5076427;28;20486;-48
2022/01/04 08:41:26;;;;;;;2.70;1.80;;;11.60;99.90;;;;;;5071797;28;20540;-48
2022/01/04 08:43:53;;;;;;;2.90;1.77;;;11.60;99.90;;;;;;5089450;28;20543;-48
2022/01/04 08:46:20;;;;;;;2.07;1.70;;;11.60;99.90;;;;;;5069201;28;20481;-47
2022/01/04 08:48:46;;;;;;;3.17;1.67;;;11.60;99.90;;;;;;5084250;28;20482;-47
2022/01/04 08:51:13;;;;;;;2.37;1.50;;;11.60;99.90;;;;;;5080490;28;20538;-48
2022/01/04 08:53:41;;;;;;;2.43;2.10;;;11.70;99.90;;;;;;5082138;28;20962;-47
2022/01/04 08:56:08;;;;;;;3.30;1.83;;;11.70;99.90;;;;;;5079768;28;21468;-47
2022/01/04 08:58:35;;;;;;;4.17;2.27;;;11.60;99.90;;;;;;5071130;27;20973;-47
2022/01/04 09:01:02;;;;;;;5.53;2.13;;;11.70;99.90;;;;;;5082612;28;20891;-47
2022/01/04 09:03:30;;;;;;;5.50;1.57;;;11.60;99.90;;;;;;5079936;28;20897;-48
2022/01/04 09:05:57;;;;;;;4.00;2.00;;;11.70;99.90;;;;;;5079484;28;20578;-47
2022/01/04 09:08:24;;;;;;;2.33;1.63;;;11.70;99.90;;;;;;5100931;27;20482;-47
2022/01/04 09:10:52;;;;;;;3.67;3.10;;;11.70;99.90;;;;;;5075692;28;20548;-48
2022/01/04 09:13:21;;;;;;;4.27;2.30;;;11.60;99.90;;;;;;5078721;28;20491;-47
2022/01/04 09:18:43;;;;;;;3.33;1.80;;;11.70;99.90;;;;;;5061304;28;20538;-48
2022/01/04 09:18:49;;;;;;;4.47;2.40;;;11.70;99.90;;;;;;5053874;28;20470;-47
2022/01/04 09:21:18;;;;;;;1.97;1.70;;;11.70;99.90;;;;;;5061191;28;20481;-48
2022/01/04 09:23:46;;;;;;;3.13;2.20;;;11.70;99.90;;;;;;5063072;28;21114;-48
2022/01/04 09:26:17;;;;;;;2.83;1.73;;;11.70;99.90;;;;;;5064290;28;20544;-47
2022/01/04 09:28:44;;;;;;;7.03;1.50;;;11.70;99.90;;;;;;5065277;28;20475;-49
2022/01/04 09:31:12;;;;;;;3.20;2.10;;;11.80;99.90;;;;;;5066826;28;20476;-47
2022/01/04 09:33:39;;;;;;;2.90;1.80;;;11.70;99.90;;;;;;5057363;28;20482;-48
2022/01/04 09:36:06;;;;;;;3.60;1.70;;;11.80;99.90;;;;;;5073525;27;20483;-47
2022/01/04 09:38:33;;;;;;;5.70;2.90;;;11.80;99.90;;;;;;5056891;27;20922;-47
2022/01/04 09:41:00;;;;;;;2.60;1.80;;;11.90;99.90;;;;;;5080438;27;20483;-48
2022/01/04 09:43:28;;;;;;;3.53;2.50;;;11.80;99.90;;;;;;5062228;28;20535;-47
2022/01/04 09:45:55;;;;;;;4.90;2.13;;;11.70;99.90;;;;;;5080778;27;21207;-47
2022/01/04 09:48:21;;;;;;;2.33;1.60;;;11.80;99.90;;;;;;5070265;27;20540;-49
2022/01/04 09:50:49;;;;;;;2.10;1.80;;;11.90;99.90;;;;;;5065781;28;21018;-49
2022/01/04 09:53:20;;;;;;;4.00;2.10;;;11.80;99.90;;;;;;5072578;28;20481;-48
2022/01/04 09:55:49;;;;;;;2.97;1.87;;;11.50;99.90;;;;;;5065181;28;20490;-48
2022/01/04 09:58:17;;;;;;;2.97;2.00;;;11.50;99.90;;;;;;5063503;28;20493;-48
2022/01/04 10:00:46;;;;;;;2.30;1.90;;;11.50;99.90;;;;;;5063763;28;20602;-47
2022/01/04 10:03:16;;;;;;;2.27;1.70;;;11.50;99.90;;;;;;5070569;28;20478;-47
2022/01/04 10:05:43;;;;;;;3.50;2.10;;;11.50;99.90;;;;;;5067835;28;20978;-47
2022/01/04 10:08:12;;;;;;;2.17;1.97;;;11.50;99.90;;;;;;5062656;28;20506;-47
2022/01/04 10:10:42;;;;;;;2.33;2.00;;;11.50;99.90;;;;;;5062633;28;20478;-47
2022/01/04 10:13:11;;;;;;;3.60;1.90;;;11.50;99.90;;;;;;5067850;28;20495;-47
2022/01/04 10:15:41;;;;;;;2.43;2.03;;;11.50;99.90;;;;;;5063498;27;20567;-47
2022/01/04 10:18:23;;;;;;;2.50;1.93;;;11.50;99.90;;;;;;5088346;27;20983;-46
2022/01/04 10:20:53;;;;;;;9.83;1.70;;;11.40;99.90;;;;;;5064420;28;21060;-47
2022/01/04 10:23:22;;;;;;;2.27;2.07;;;11.50;99.90;;;;;;5080850;27;20486;-47
2022/01/04 10:25:50;;;;;;;1.70;1.20;;;11.50;99.90;;;;;;5059090;28;20485;-48
2022/01/04 10:28:37;;;;;;;2.20;1.90;;;11.70;99.90;;;;;;5094276;27;20904;-50
2022/01/04 10:31:06;;;;;;;2.37;2.17;;;11.60;99.90;;;;;;5062559;28;20476;-47
2022/01/04 10:33:35;;;;;;;3.13;2.30;;;11.40;99.90;;;;;;5069604;28;20959;-48
2022/01/04 10:36:08;;;;;;;4.70;2.90;;;11.50;99.90;;;;;;5076973;27;21114;-47
2022/01/04 10:38:36;;;;;;;2.30;1.87;;;11.50;99.90;;;;;;5078003;28;21105;-48
2022/01/04 10:41:05;;;;;;;2.30;1.20;;;11.60;99.90;;;;;;5070405;27;20488;-48
2022/01/04 10:43:34;;;;;;;3.00;1.47;;;11.60;99.90;;;;;;5068206;28;20471;-49
2022/01/04 10:46:02;;;;;;;2.23;2.03;;;11.70;99.90;;;;;;5060796;28;20487;-50
2022/01/04 10:48:31;;;;;;;4.07;2.20;;;11.70;99.90;;;;;;5070924;28;20516;-50
2022/01/04 10:51:04;;;;;;;2.37;1.90;;;11.70;99.90;;;;;;5070956;28;20928;-49
2022/01/04 10:53:34;;;;;;;3.10;2.40;;;11.80;99.90;;;;;;5062609;28;20827;-49
2022/01/04 10:56:02;;;;;;;1.93;1.57;;;11.90;99.90;;;;;;5085287;28;20476;-50
2022/01/04 10:58:33;;;;;;;2.53;1.47;;;11.80;99.90;;;;;;5071776;28;20494;-49
2022/01/04 11:01:01;;;;;;;4.40;1.80;;;11.90;99.90;;;;;;5071157;27;20490;-49
2022/01/04 11:03:30;;;;;;;2.00;1.70;;;11.90;99.90;;;;;;5088534;27;20483;-49
2022/01/04 11:06:05;;;;;;;2.23;1.20;;;11.90;99.90;;;;;;5068650;28;20985;-50
2022/01/04 11:08:32;;;;;;;2.00;1.47;;;11.90;99.90;;;;;;5067922;28;21063;-48
2022/01/04 11:11:00;;;;;;;1.80;1.40;;;12.00;99.90;;;;;;5092673;27;20890;-50
2022/01/04 11:13:27;;;;;;;1.80;1.30;;;12.00;99.90;;;;;;5072086;28;20479;-49
2022/01/04 11:15:53;;;;;;;2.27;1.20;;;12.00;99.90;;;;;;5059991;27;20475;-50
2022/01/04 11:18:21;;;;;;;1.87;0.80;;;11.90;99.90;;;;;;5090332;27;21053;-49
2022/01/04 11:20:49;;;;;;;3.50;1.10;;;11.80;99.90;;;;;;5080750;28;20475;-49
2022/01/04 11:23:22;;;;;;;1.67;0.77;;;11.70;99.90;;;;;;5071675;28;21044;-49
2022/01/04 11:25:50;;;;;;;1.50;0.70;;;11.50;99.90;;;;;;5068693;28;20479;-48
2022/01/04 11:28:17;;;;;;;1.40;0.67;;;11.50;99.90;;;;;;5069415;28;20552;-48
2022/01/04 11:31:04;;;;;;;1.50;0.67;;;11.30;99.90;;;;;;5063113;27;20537;-48
2022/01/04 11:33:44;;;;;;;1.83;1.00;;;11.20;99.90;;;;;;5063745;27;20519;-47
2022/01/04 11:36:13;;;;;;;2.37;1.30;;;11.20;99.90;;;;;;5058033;28;20495;-47
2022/01/04 11:38:41;;;;;;;1.80;1.17;;;11.30;99.90;;;;;;5066656;28;20491;-48
2022/01/04 11:41:08;;;;;;;1.67;1.23;;;11.30;99.90;;;;;;5062132;28;20482;-47
2022/01/04 11:43:38;;;;;;;2.03;1.60;;;11.20;99.90;;;;;;5066979;28;20518;-48
2022/01/04 11:46:05;;;;;;;2.17;1.37;;;11.10;99.90;;;;;;5065899;28;20554;-48
2022/01/04 11:48:34;;;;;;;1.67;1.03;;;11.10;99.90;;;;;;5067185;28;20515;-48
2022/01/04 11:51:03;;;;;;;1.77;1.07;;;11.00;99.90;;;;;;5068469;28;20488;-48
2022/01/04 11:53:30;;;;;;;1.57;0.80;;;11.00;99.90;;;;;;5065928;28;21116;-47
2022/01/04 11:56:03;;;;;;;1.90;1.13;;;10.80;99.90;;;;;;5066853;28;20475;-48
2022/01/04 11:58:43;;;;;;;1.70;1.10;;;10.60;99.90;;;;;;5063779;28;20492;-47
2022/01/04 12:01:11;;;;;;;1.90;1.20;;;10.50;99.90;;;;;;5049451;28;21341;-48
2022/01/04 12:03:43;;;;;;;2.20;1.40;;;10.40;99.90;;;;;;5063844;27;20837;-48
2022/01/04 12:06:10;;;;;;;2.37;1.40;;;10.30;99.90;;;;;;5094117;27;21087;-48
2022/01/04 12:08:39;;;;;;;4.13;2.80;;;10.20;99.90;;;;;;5070522;28;20536;-48
2022/01/04 12:11:22;;;;;;;6.73;3.70;;;10.10;99.90;;;;;;5068716;28;20990;-47
2022/01/04 12:13:51;;;;;;;2.73;2.00;;;10.10;99.90;;;;;;5062780;27;21289;-48
2022/01/04 12:16:31;;;;;;;3.47;1.80;;;10.10;99.90;;;;;;5089875;27;20829;-48
2022/01/04 12:18:59;;;;;;;2.90;1.90;;;10.10;99.90;;;;;;5068417;28;20554;-48
2022/01/04 12:21:40;;;;;;;2.10;1.67;;;10.10;99.90;;;;;;5059126;27;20985;-48
2022/01/04 12:24:08;;;;;;;3.60;1.77;;;10.10;99.90;;;;;;5094492;27;20545;-48
2022/01/04 12:26:38;;;;;;;1.80;1.00;;;10.10;99.90;;;;;;5065713;28;20481;-48
2022/01/04 12:29:22;;;;;;;1.97;1.40;;;10.10;99.90;;;;;;5080644;27;20490;-49
2022/01/04 12:31:53;;;;;;;1.90;1.30;;;10.10;99.90;;;;;;5069163;28;20916;-48
2022/01/04 12:34:32;;;;;;;1.70;1.10;;;10.10;99.90;;;;;;5054402;28;20532;-48
2022/01/04 12:37:00;;;;;;;2.30;1.47;;;10.10;99.90;;;;;;5062133;28;20480;-49
2022/01/04 12:39:38;;;;;;;1.83;1.43;;;10.10;99.90;;;;;;5066389;28;20488;-48
2022/01/04 12:42:08;;;;;;;2.30;1.50;;;10.10;99.90;;;;;;5068546;28;20500;-48
2022/01/04 12:44:35;;;;;;;2.33;1.57;;;10.10;99.90;;;;;;5057003;27;20458;-48
2022/01/04 12:47:03;;;;;;;2.10;1.40;;;10.10;99.90;;;;;;5097533;27;20928;-49
2022/01/04 12:49:32;;;;;;;2.20;1.67;;;10.20;99.90;;;;;;5064368;28;20476;-50
2022/01/04 12:52:00;;;;;;;1.90;1.70;;;10.20;99.90;;;;;;5063962;27;20489;-48
2022/01/04 12:54:29;;;;;;;2.53;2.33;;;10.10;99.90;;;;;;5082718;27;20511;-49